Aeroporto :
LOGIN :

Iscrizione | Disclaimer

   EN    FR    IT 

 










Sommario :    VFR   VFR Marginale   IFR   IFR Intensivo   IFR Molto Intensivo
Visibilità : 
Base nubi : 
>= 8 km
>= 3000ft
5 / 8 km
1000 / 3000 ft
1500m / 5 km
500 / 1000 ft
800 / 1500m
200 / 500 ft
< 800m
< 200 ft
Simboli :   Temporali  Nebbia  Neve Forte  Precipitazioni Forti  Vento > 20 kt
SIGMETs :   Varie  Temporali  Ghiacco  Turbolenza  Onda orograficha  Ceneri Vulcaniche






- Altitudine del aeroporto : 699 ft
- Codice IATA : PAD


EDLP - Paderborn Lippstadt

ULTIMO METAR :
  • 212250Z VRB02KT CAVOK M02/M05 Q1037

METARs OBSOLETI :
  • 212220Z VRB04KT CAVOK M01/M03 Q1037
  • 212150Z VRB06KT CAVOK M01/M04 Q1037
  • 212120Z 20002KT CAVOK M01/M04 Q1037
  • 212050Z VRB02KT CAVOK 00/M03 Q1038

TAF TAF EDLP
Valido dal 21 a 18 ore il 22 a 18 ore UTC


211700Z 2118/2218 22005KT CAVOK
BECMG 2204/2207 3000 BR OVC007
PROB30
TEMPO 2207/2212 0800 FZFG OVC003
PROB30
TEMPO 2212/2218 1200 -RADZ OVC003



MetMap, La meteo Aeronautica in un colpo d'occhio ! - Copyright ORBIFLY Dicembre 2007 - Disclaimer

ORBIFLY MET'MAP TEAM :

Programmazione e sviluppo : Alexandra Zaïnal
Concezione : Baudouin d'Aumeries
Aiuto per la programmazione : Marc-Olivier Méhu
Supporto tecnico e logistico : Manuel Goepfert
Aiuto per la traduzione : Arnaldo La Scala

Contatto : metmap@orbifly.com




FONTI E CREDITI :

   NOAA